LFBI/PIS METAR and TAF weather

Enter ICAO airport designator
Station Type Date Time Source
LFBI METAR 2020/01/19 14:30 UTC NOAA

LFBI 191430Z AUTO 03015KT 9999 BKN032/// BKN043/// BKN052/// 06/01 Q1038 BECMG 04015G25KT


Station Type Date Time Source
LFBI Decoded METAR 2020/01/19 14:30 UTC NOAA

Poitiers, France (LFBI) 46-35N 000-19E 120M
Jan 19, 2020 - 09:30 AM EST / 2020.01.19 1430 UTC
Wind: from the NNE (030 degrees) at 17 MPH (15 KT):0
Visibility: greater than 7 mile(s):0
Sky conditions: mostly cloudy
Temperature: 42 F (6 C)
Dew Point: 33 F (1 C)
Relative Humidity: 70%
Pressure (altimeter): 30.65 in. Hg (1038 hPa)
ob: LFBI 191430Z AUTO 03015KT 9999 BKN032/// BKN043/// BKN052/// 06/01 Q1038 BECMG 04015G25KT
cycle: 14

Station Type Date Time Source
LFBI TAF 2020/01/19 12:43 UTC NOAA

TAF LFBI 191100Z 1912/2012 04015G25KT CAVOK
BECMG 1915/1917 BKN020
TEMPO 1922/2008 BKN008

Example: see airport list